OERK/RUH METAR and TAF weather

Enter ICAO airport designator
Station Type Date Time Source
OERK METAR 2021/08/02 02:00 UTC NOAA

OERK 020200Z 35005KT CAVOK 31/02 Q1004 NOSIG


Station Type Date Time Source
OERK Decoded METAR 2021/08/02 02:00 UTC NOAA

King Khaled International Airport, Saudi Arabia (OERK) 24-56N 046-43E 612M
Aug 01, 2021 - 10:00 PM EDT / 2021.08.02 0200 UTC
Wind: from the N (350 degrees) at 6 MPH (5 KT):0
Visibility: greater than 7 mile(s):0
Temperature: 87 F (31 C)
Dew Point: 35 F (2 C)
Relative Humidity: 15%
Pressure (altimeter): 29.65 in. Hg (1004 hPa)
ob: OERK 020200Z 35005KT CAVOK 31/02 Q1004 NOSIG
cycle: 2

Station Type Date Time Source
OERK TAF 2021/08/01 18:33 UTC NOAA

TAF OERK 011800Z 0118/0224 30012KT CAVOK
BECMG 0206/0208 09008KT 7000 NSC
BECMG 0214/0216 16010KT

Example: see airport list